| time (UTC) | temp F | wind direction | speed MPH | gust MPH | rain 1hr in | rain 24hr in | rain mn in | humidity % | barometer mb |
| 20260509004530 | 75 | 159 | 0.0 | 0.0 | 0.00 | 0.00 | 0.00 | 24 | 1007.2 |
| 20260509003029 | 76 | 212 | 0.0 | 0.0 | 0.00 | 0.00 | 0.00 | 23 | 1007.4 |
| 20260509001528 | 76 | 211 | 0.0 | 0.0 | 0.00 | 0.00 | 0.00 | 24 | 1007.5 |
| 20260509000038 | 76 | 178 | 1.0 | 0.0 | 0.00 | 0.00 | 0.00 | 23 | 1007.6 |
| 20260508234524 | 75 | 123 | 0.0 | 0.0 | 0.00 | 0.00 | 0.00 | 22 | 1007.9 |
| 20260508233023 | 75 | 225 | 1.0 | 0.0 | 0.00 | 0.00 | 0.00 | 22 | 1008.0 |
| 20260508231522 | 75 | 282 | 1.0 | 0.0 | 0.00 | 0.00 | 0.00 | 22 | 1008.0 |
| 20260508230021 | 76 | 183 | 0.0 | 0.0 | 0.00 | 0.00 | 0.00 | 24 | 1008.0 |
| 20260508224539 | 76 | 205 | 0.0 | 0.0 | 0.00 | 0.00 | 0.00 | 23 | 1008.3 |
| 20260508223016 | 76 | 310 | 0.0 | 0.0 | 0.00 | 0.00 | 0.00 | 23 | 1008.4 |
| 20260508221516 | 75 | 254 | 2.0 | 0.0 | 0.00 | 0.00 | 0.00 | 22 | 1008.7 |
| 20260508220021 | 75 | 224 | 0.0 | 0.0 | 0.00 | 0.00 | 0.00 | 24 | 1009.0 |
| 20260508214517 | 74 | 252 | 3.0 | 0.0 | 0.00 | 0.00 | 0.00 | 24 | 1009.1 |
| 20260508213020 | 75 | 286 | 1.0 | 0.0 | 0.00 | 0.00 | 0.00 | 25 | 1009.3 |
| 20260508211516 | 75 | 292 | 1.0 | 0.0 | 0.00 | 0.00 | 0.00 | 24 | 1009.4 |
| 20260508210013 | 74 | 240 | 2.0 | 0.0 | 0.00 | 0.00 | 0.00 | 27 | 1009.6 |
| 20260508204509 | 74 | 292 | 0.0 | 0.0 | 0.00 | 0.00 | 0.00 | 25 | 1009.8 |
| 20260508203010 | 73 | 295 | 1.0 | 0.0 | 0.00 | 0.00 | 0.00 | 29 | 1009.9 |
| 20260508201507 | 73 | 259 | 0.0 | 0.0 | 0.00 | 0.00 | 0.00 | 27 | 1010.0 |
| 20260508200015 | 73 | 263 | 0.0 | 0.0 | 0.00 | 0.00 | 0.00 | 28 | 1010.1 |
| 20260508194503 | 71 | 210 | 1.0 | 0.0 | 0.00 | 0.00 | 0.00 | 30 | 1010.1 |
| 20260508193106 | 71 | 243 | 2.0 | 0.0 | 0.00 | 0.00 | 0.00 | 31 | 1010.3 |
| 20260508191557 | 70 | 300 | 2.0 | 0.0 | 0.00 | 0.00 | 0.00 | 36 | 1010.4 |
| 20260508190056 | 70 | 261 | 2.0 | 0.0 | 0.00 | 0.00 | 0.00 | 36 | 1010.6 |
| 20260508184556 | 69 | 257 | 2.0 | 0.0 | 0.00 | 0.00 | 0.00 | 38 | 1010.7 |
| 20260508183118 | 70 | 244 | 3.0 | 0.0 | 0.00 | 0.00 | 0.00 | 36 | 1010.7 |
| 20260508181610 | 69 | 206 | 1.0 | 0.0 | 0.00 | 0.00 | 0.00 | 36 | 1011.0 |
| 20260508180053 | 69 | 203 | 1.0 | 0.0 | 0.00 | 0.00 | 0.00 | 33 | 1011.1 |
| 20260508174550 | 69 | 196 | 1.0 | 0.0 | 0.00 | 0.00 | 0.00 | 34 | 1011.2 |
| 20260508173046 | 68 | 234 | 1.0 | 0.0 | 0.00 | 0.00 | 0.00 | 41 | 1011.2 |
| 20260508171550 | 67 | 243 | 2.0 | 0.0 | 0.00 | 0.00 | 0.00 | 43 | 1011.3 |
| 20260508170044 | 67 | 231 | 1.0 | 0.0 | 0.00 | 0.00 | 0.00 | 43 | 1011.3 |
| 20260508164540 | 66 | 234 | 2.0 | 0.0 | 0.00 | 0.00 | 0.00 | 47 | 1011.3 |
| 20260508163045 | 66 | 241 | 1.0 | 0.0 | 0.00 | 0.00 | 0.00 | 46 | 1011.2 |
| 20260508161540 | 66 | 188 | 0.0 | 0.0 | 0.00 | 0.00 | 0.00 | 48 | 1011.2 |
| 20260508160040 | 66 | 200 | 1.0 | 0.0 | 0.00 | 0.00 | 0.00 | 51 | 1011.1 |
| 20260508154536 | 66 | 284 | 0.0 | 0.0 | 0.00 | 0.00 | 0.00 | 46 | 1011.1 |
| 20260508153032 | 64 | 148 | 0.0 | 0.0 | 0.00 | 0.00 | 0.00 | 48 | 1011.1 |
| 20260508151528 | 63 | 148 | 0.0 | 0.0 | 0.00 | 0.00 | 0.00 | 52 | 1011.2 |
| 20260508150029 | 60 | 148 | 0.0 | 0.0 | 0.00 | 0.00 | 0.00 | 52 | 1011.1 |
| 20260508144535 | 59 | 242 | 0.0 | 0.0 | 0.00 | 0.00 | 0.00 | 53 | 1011.1 |
| 20260508143026 | 57 | 242 | 0.0 | 0.0 | 0.00 | 0.00 | 0.00 | 56 | 1011.1 |
| 20260508141520 | 55 | 242 | 0.0 | 0.0 | 0.00 | 0.00 | 0.00 | 61 | 1011.0 |
| 20260508140008 | 52 | 242 | 0.0 | 0.0 | 0.00 | 0.00 | 0.00 | 64 | 1010.9 |
| 20260508134507 | 49 | 242 | 0.0 | 0.0 | 0.00 | 0.00 | 0.00 | 69 | 1010.8 |
| 20260508133006 | 47 | 242 | 0.0 | 0.0 | 0.00 | 0.00 | 0.00 | 71 | 1010.6 |
| 20260508131504 | 46 | 242 | 0.0 | 0.0 | 0.00 | 0.00 | 0.00 | 73 | 1010.5 |
| 20260508130002 | 45 | 35 | 0.0 | 0.0 | 0.00 | 0.00 | 0.00 | 73 | 1010.2 |
| 20260508124603 | 45 | 35 | 0.0 | 0.0 | 0.00 | 0.00 | 0.00 | 72 | 1010.1 |
| 20260508123058 | 45 | 35 | 0.0 | 0.0 | 0.00 | 0.00 | 0.00 | 71 | 1009.8 |
| 20260508121555 | 45 | 35 | 0.0 | 0.0 | 0.00 | 0.00 | 0.00 | 69 | 1009.8 |
| 20260508120053 | 46 | 35 | 0.0 | 0.0 | 0.00 | 0.00 | 0.00 | 68 | 1009.6 |
| 20260508114553 | 46 | 35 | 0.0 | 0.0 | 0.00 | 0.00 | 0.00 | 69 | 1009.4 |
| 20260508113121 | 46 | 35 | 0.0 | 0.0 | 0.00 | 0.00 | 0.00 | 71 | 1009.4 |
| 20260508111549 | 46 | 35 | 0.0 | 0.0 | 0.00 | 0.00 | 0.00 | 71 | 1009.3 |
| 20260508110047 | 46 | 35 | 0.0 | 0.0 | 0.00 | 0.00 | 0.00 | 71 | 1009.3 |
| 20260508104554 | 46 | 35 | 0.0 | 0.0 | 0.00 | 0.00 | 0.00 | 70 | 1009.2 |
| 20260508103045 | 47 | 35 | 0.0 | 0.0 | 0.00 | 0.00 | 0.00 | 70 | 1009.1 |
| 20260508101548 | 46 | 35 | 0.0 | 0.0 | 0.00 | 0.00 | 0.00 | 72 | 1008.9 |
| 20260508100043 | 46 | 35 | 0.0 | 0.0 | 0.00 | 0.00 | 0.00 | 72 | 1008.9 |
| 20260508094543 | 46 | 35 | 0.0 | 0.0 | 0.00 | 0.00 | 0.00 | 76 | 1009.0 |
| 20260508093042 | 46 | 35 | 0.0 | 0.0 | 0.00 | 0.00 | 0.00 | 72 | 1008.9 |
| 20260508091545 | 47 | 35 | 0.0 | 0.0 | 0.00 | 0.00 | 0.00 | 72 | 1009.0 |
| 20260508090045 | 47 | 35 | 0.0 | 0.0 | 0.00 | 0.00 | 0.00 | 71 | 1008.9 |
| 20260508084536 | 48 | 35 | 0.0 | 0.0 | 0.00 | 0.00 | 0.00 | 70 | 1009.1 |
| 20260508083038 | 48 | 35 | 0.0 | 0.0 | 0.00 | 0.00 | 0.00 | 70 | 1008.9 |
| 20260508081538 | 48 | 35 | 0.0 | 0.0 | 0.00 | 0.00 | 0.00 | 69 | 1009.0 |
| 20260508080031 | 49 | 35 | 0.0 | 0.0 | 0.00 | 0.00 | 0.00 | 68 | 1009.0 |
| 20260508074529 | 49 | 35 | 0.0 | 0.0 | 0.00 | 0.00 | 0.00 | 67 | 1008.9 |
| 20260508073026 | 50 | 35 | 0.0 | 0.0 | 0.00 | 0.00 | 0.00 | 66 | 1008.8 |
| 20260508071524 | 50 | 35 | 0.0 | 0.0 | 0.00 | 0.00 | 0.00 | 65 | 1008.8 |
| 20260508070023 | 51 | 35 | 0.0 | 0.0 | 0.00 | 0.00 | 0.00 | 64 | 1008.7 |
| 20260508064545 | 51 | 35 | 0.0 | 0.0 | 0.00 | 0.00 | 0.00 | 62 | 1008.8 |
| 20260508063017 | 53 | 35 | 0.0 | 0.0 | 0.00 | 0.00 | 0.00 | 61 | 1008.6 |
| 20260508061514 | 53 | 35 | 0.0 | 0.0 | 0.00 | 0.00 | 0.00 | 60 | 1008.6 |
| 20260508060011 | 54 | 35 | 0.0 | 0.0 | 0.00 | 0.00 | 0.00 | 59 | 1008.5 |
| 20260508054514 | 55 | 35 | 0.0 | 0.0 | 0.00 | 0.00 | 0.00 | 57 | 1008.5 |
| 20260508053009 | 56 | 35 | 0.0 | 0.0 | 0.00 | 0.00 | 0.00 | 54 | 1008.5 |
| 20260508051516 | 58 | 35 | 0.0 | 0.0 | 0.00 | 0.00 | 0.00 | 51 | 1008.4 |
| 20260508050016 | 59 | 35 | 0.0 | 0.0 | 0.00 | 0.00 | 0.00 | 49 | 1008.3 |
| 20260508044508 | 59 | 35 | 0.0 | 0.0 | 0.00 | 0.00 | 0.00 | 49 | 1008.3 |
| 20260508043010 | 59 | 35 | 0.0 | 0.0 | 0.00 | 0.00 | 0.00 | 50 | 1008.2 |
| 20260508041507 | 58 | 253 | 0.0 | 0.0 | 0.00 | 0.00 | 0.00 | 48 | 1008.0 |
| 20260508040007 | 59 | 253 | 0.0 | 0.0 | 0.00 | 0.00 | 0.00 | 48 | 1008.0 |
| 20260508034519 | 60 | 253 | 0.0 | 0.0 | 0.00 | 0.00 | 0.00 | 46 | 1007.9 |
| 20260508033005 | 62 | 253 | 0.0 | 0.0 | 0.00 | 0.00 | 0.00 | 43 | 1007.7 |
| 20260508031504 | 64 | 253 | 0.0 | 0.0 | 0.00 | 0.00 | 0.00 | 41 | 1007.6 |
| 20260508030005 | 65 | 253 | 0.0 | 0.0 | 0.00 | 0.00 | 0.00 | 38 | 1007.5 |
| 20260508024505 | 67 | 253 | 0.0 | 0.0 | 0.00 | 0.00 | 0.00 | 36 | 1007.4 |
| 20260508023002 | 69 | 253 | 0.0 | 0.0 | 0.00 | 0.00 | 0.00 | 34 | 1007.4 |
| 20260508021502 | 71 | 253 | 0.0 | 0.0 | 0.00 | 0.00 | 0.00 | 32 | 1007.4 |
| 20260508020002 | 72 | 253 | 0.0 | 0.0 | 0.00 | 0.00 | 0.00 | 31 | 1007.5 |
| 20260508014600 | 73 | 253 | 0.0 | 0.0 | 0.00 | 0.00 | 0.00 | 29 | 1007.5 |
| 20260508013059 | 72 | 253 | 0.0 | 0.0 | 0.00 | 0.00 | 0.00 | 30 | 1007.6 |
| 20260508011609 | 72 | 260 | 0.0 | 0.0 | 0.00 | 0.00 | 0.00 | 31 | 1007.7 |